createdAt,value
2018-09-05T00:00:39.607Z,67.80
2018-09-05T00:03:08.739Z,67.84
2018-09-05T00:05:37.911Z,67.94
2018-09-05T00:08:07.133Z,68.06
2018-09-05T00:10:36.909Z,68.05
2018-09-05T00:13:06.282Z,68.05
2018-09-05T00:15:35.372Z,68.24
2018-09-05T00:18:04.542Z,68.29
2018-09-05T00:20:33.633Z,68.39
2018-09-05T00:23:02.878Z,68.43
2018-09-05T00:25:32.030Z,68.58
2018-09-05T00:28:01.208Z,68.68
2018-09-05T00:30:30.351Z,68.55
2018-09-05T00:32:59.609Z,68.51
2018-09-05T00:35:28.683Z,68.56
2018-09-05T00:37:57.793Z,68.50
2018-09-05T00:40:26.889Z,68.46
2018-09-05T00:42:55.974Z,68.58
2018-09-05T00:45:24.987Z,68.74
2018-09-05T00:47:54.691Z,68.60
2018-09-05T00:50:24.819Z,68.50
2018-09-05T00:52:53.929Z,68.49
2018-09-05T00:55:23.039Z,68.76
2018-09-05T00:57:52.203Z,69.22
2018-09-05T01:00:21.377Z,69.41
2018-09-05T01:02:50.530Z,69.44
2018-09-05T01:05:19.582Z,69.26
2018-09-05T01:07:48.725Z,69.05
2018-09-05T01:10:17.873Z,68.95
2018-09-05T01:12:47.099Z,69.11
2018-09-05T01:15:16.273Z,69.43
2018-09-05T01:17:45.451Z,69.64
2018-09-05T01:20:15.652Z,69.73
2018-09-05T01:22:44.785Z,69.62
2018-09-05T01:25:13.867Z,69.51
2018-09-05T01:27:43.014Z,69.76
2018-09-05T01:30:12.138Z,69.65
2018-09-05T01:32:42.431Z,69.72
2018-09-05T01:35:11.550Z,69.76
2018-09-05T01:37:40.814Z,69.91
2018-09-05T01:40:09.908Z,70.22
2018-09-05T01:42:39.098Z,70.22
2018-09-05T01:45:08.278Z,70.29
2018-09-05T01:47:37.449Z,70.23
2018-09-05T01:50:07.042Z,70.09
2018-09-05T01:52:36.138Z,69.86
2018-09-05T01:55:05.323Z,69.88
2018-09-05T01:57:34.435Z,69.93
2018-09-05T02:00:03.591Z,69.94
2018-09-05T02:02:32.629Z,69.89
2018-09-05T02:05:01.907Z,70.02
2018-09-05T02:07:30.925Z,70.10
2018-09-05T02:09:59.991Z,70.06
2018-09-05T02:12:29.233Z,70.13
2018-09-05T02:14:58.355Z,70.17
2018-09-05T02:17:27.408Z,70.16
2018-09-05T02:19:56.504Z,70.29
2018-09-05T02:22:25.934Z,70.29
2018-09-05T02:24:55.056Z,70.43
2018-09-05T02:27:24.124Z,70.23
2018-09-05T02:29:53.182Z,70.14
2018-09-05T02:32:22.268Z,70.21
2018-09-05T02:34:51.706Z,70.28
2018-09-05T02:37:20.719Z,70.23
2018-09-05T02:39:49.769Z,70.15
2018-09-05T02:42:18.801Z,70.06
2018-09-05T02:44:47.903Z,69.88
2018-09-05T02:47:17.022Z,69.83
2018-09-05T02:49:46.178Z,69.82
2018-09-05T02:52:15.267Z,69.84
2018-09-05T02:54:44.291Z,69.95
2018-09-05T02:57:13.423Z,69.85
2018-09-05T02:59:42.588Z,70.06
2018-09-05T03:02:11.727Z,69.72
2018-09-05T03:04:40.801Z,69.91
2018-09-05T03:07:09.823Z,69.95
2018-09-05T03:09:39.028Z,69.83
2018-09-05T03:12:08.404Z,69.90
2018-09-05T03:14:37.399Z,70.00
2018-09-05T03:17:06.591Z,70.12
2018-09-05T03:19:36.204Z,69.91
2018-09-05T03:22:05.318Z,69.84
2018-09-05T03:24:34.464Z,69.71
2018-09-05T03:27:03.588Z,69.66
2018-09-05T03:29:32.607Z,69.60
2018-09-05T03:32:01.637Z,69.66
2018-09-05T03:34:30.665Z,69.46
2018-09-05T03:36:59.669Z,69.23
2018-09-05T03:39:28.762Z,69.22
2018-09-05T03:41:57.799Z,69.06
2018-09-05T03:44:26.860Z,69.09
2018-09-05T03:46:55.848Z,69.01
2018-09-05T03:49:24.960Z,68.89
2018-09-05T03:51:54.348Z,68.75
2018-09-05T03:54:24.276Z,68.70
2018-09-05T03:56:53.320Z,68.47
2018-09-05T03:59:23.291Z,68.66
2018-09-05T04:01:52.380Z,68.93
2018-09-05T04:04:21.416Z,69.33
2018-09-05T04:06:50.435Z,69.58
2018-09-05T04:09:19.503Z,69.60
2018-09-05T04:11:48.496Z,69.78
2018-09-05T04:14:17.581Z,69.84
2018-09-05T04:16:46.688Z,69.93
2018-09-05T04:19:15.672Z,69.73
2018-09-05T04:21:44.863Z,69.56
2018-09-05T04:24:14.340Z,69.57
2018-09-05T04:26:43.355Z,69.64
2018-09-05T04:29:12.396Z,69.52
2018-09-05T04:31:42.035Z,69.58
2018-09-05T04:34:11.097Z,69.77
2018-09-05T04:36:40.201Z,69.72
2018-09-05T04:39:10.483Z,69.55
2018-09-05T04:41:40.761Z,69.52
2018-09-05T04:44:09.928Z,69.32
2018-09-05T04:46:38.994Z,69.35
2018-09-05T04:49:08.066Z,69.36
2018-09-05T04:51:37.832Z,69.43
2018-09-05T04:54:07.072Z,69.32
2018-09-05T04:56:36.214Z,69.29
2018-09-05T04:59:05.324Z,69.26
2018-09-05T05:01:34.399Z,69.28
2018-09-05T05:04:03.536Z,69.32
2018-09-05T05:06:33.391Z,69.26
2018-09-05T05:09:02.497Z,69.11
2018-09-05T05:11:31.528Z,69.32
2018-09-05T05:14:01.160Z,69.40
2018-09-05T05:16:30.232Z,69.45
2018-09-05T05:18:59.283Z,69.46
2018-09-05T05:21:28.428Z,69.68
2018-09-05T05:23:57.497Z,69.75
2018-09-05T05:26:26.548Z,69.92
2018-09-05T05:28:55.641Z,69.90
2018-09-05T05:31:24.841Z,69.91
2018-09-05T05:33:53.982Z,69.98
2018-09-05T05:36:22.993Z,69.96
2018-09-05T05:38:52.098Z,70.12
2018-09-05T05:41:21.510Z,70.03
2018-09-05T05:43:50.601Z,69.74
2018-09-05T05:46:19.813Z,69.91
2018-09-05T05:48:48.849Z,69.76
2018-09-05T05:51:18.898Z,69.63
2018-09-05T05:53:47.937Z,69.73
2018-09-05T05:56:16.933Z,69.82
2018-09-05T05:58:45.987Z,69.92
2018-09-05T06:01:15.082Z,70.07
2018-09-05T06:03:44.104Z,70.15
2018-09-05T06:06:13.193Z,70.43
2018-09-05T06:08:42.221Z,70.21
2018-09-05T06:11:11.279Z,70.46
2018-09-05T06:13:40.361Z,70.37
2018-09-05T06:16:09.362Z,70.24
2018-09-05T06:18:38.796Z,70.00
2018-09-05T06:21:07.929Z,69.92
2018-09-05T06:23:36.977Z,69.89
2018-09-05T06:26:06.187Z,69.75
2018-09-05T06:28:38.787Z,69.51
2018-09-05T06:31:18.556Z,69.45
2018-09-05T06:36:23.397Z,69.04
2018-09-05T06:38:52.448Z,68.94
2018-09-05T06:41:21.419Z,68.77
2018-09-05T06:43:50.411Z,68.71
2018-09-05T06:46:19.811Z,68.53
2018-09-05T06:48:48.900Z,68.52
2018-09-05T06:51:19.082Z,68.42
2018-09-05T06:53:48.272Z,68.24
2018-09-05T06:56:18.122Z,67.79
2018-09-05T06:58:47.746Z,67.33
2018-09-05T07:01:17.002Z,66.74
2018-09-05T07:03:46.411Z,66.06
2018-09-05T07:06:15.460Z,65.08
2018-09-05T07:08:44.465Z,64.19
2018-09-05T07:11:20.701Z,63.00
2018-09-05T07:13:50.071Z,62.28
2018-09-05T07:16:19.253Z,61.88
2018-09-05T07:18:48.364Z,61.70
2018-09-05T07:21:17.482Z,60.98
2018-09-05T07:23:46.607Z,60.39
2018-09-05T07:26:15.668Z,59.30
2018-09-05T07:28:44.713Z,58.96
2018-09-05T07:31:13.941Z,58.52
2018-09-05T07:33:43.007Z,57.78
2018-09-05T07:36:13.073Z,57.00
2018-09-05T07:38:42.320Z,56.40
2018-09-05T07:41:11.629Z,55.65
2018-09-05T07:43:40.849Z,55.20
2018-09-05T07:46:09.931Z,54.61
2018-09-05T07:48:39.371Z,54.43
2018-09-05T07:51:08.739Z,53.38
2018-09-05T07:53:42.897Z,52.94
2018-09-05T07:56:22.487Z,52.70
2018-09-05T07:58:54.579Z,51.96
2018-09-05T08:01:23.741Z,52.13
2018-09-05T08:03:55.290Z,51.82
2018-09-05T08:06:25.817Z,51.66
2018-09-05T08:08:54.883Z,51.98
2018-09-05T08:11:24.380Z,52.18
2018-09-05T08:13:53.525Z,52.98
2018-09-05T08:16:22.722Z,53.18
2018-09-05T08:18:52.891Z,53.05
2018-09-05T08:21:22.072Z,53.19
2018-09-05T08:23:52.013Z,53.15
2018-09-05T08:26:21.225Z,53.45
2018-09-05T08:28:50.399Z,53.09
2018-09-05T08:31:22.887Z,53.29
2018-09-05T08:33:57.537Z,53.56
2018-09-05T08:36:27.283Z,53.64
2018-09-05T08:38:57.994Z,53.76
2018-09-05T08:41:29.541Z,53.28
2018-09-05T08:43:59.159Z,53.75
2018-09-05T08:46:28.567Z,53.69
2018-09-05T08:49:12.589Z,54.05
2018-09-05T08:51:43.047Z,54.41
2018-09-05T08:54:12.336Z,54.77
2018-09-05T08:56:41.469Z,54.59
2018-09-05T08:59:10.986Z,54.35
2018-09-05T09:01:40.331Z,54.35
2018-09-05T09:04:09.532Z,54.64
2018-09-05T09:06:38.692Z,54.53
2018-09-05T09:09:09.827Z,54.32
2018-09-05T09:11:40.132Z,54.93
2018-09-05T09:14:10.097Z,54.94
2018-09-05T09:16:39.354Z,55.41
2018-09-05T09:19:08.801Z,55.10
2018-09-05T09:21:38.387Z,55.46
2018-09-05T09:38:04.817Z,55.65
2018-09-05T09:40:33.913Z,55.92
2018-09-05T09:43:03.104Z,55.85
2018-09-05T09:45:32.220Z,55.94
2018-09-05T09:48:01.358Z,56.32
2018-09-05T09:50:31.136Z,56.00
2018-09-05T09:53:00.768Z,55.85
2018-09-05T09:55:29.990Z,55.83
2018-09-05T09:57:59.131Z,55.56
2018-09-05T10:00:33.163Z,55.79
2018-09-05T10:03:07.454Z,56.25
2018-09-05T10:05:49.083Z,56.28
2018-09-05T10:08:23.362Z,56.68
2018-09-05T10:10:57.356Z,56.72
2018-09-05T10:13:31.982Z,57.04
2018-09-05T10:16:05.991Z,57.10
2018-09-05T10:18:38.285Z,57.53
2018-09-05T10:21:07.645Z,57.23
2018-09-05T10:23:36.879Z,56.80
2018-09-05T10:26:09.982Z,57.02
2018-09-05T10:28:39.121Z,56.90
2018-09-05T10:31:08.252Z,56.71
2018-09-05T10:33:38.415Z,56.39
2018-09-05T10:36:08.555Z,56.18
2018-09-05T10:38:37.630Z,56.41
2018-09-05T10:41:07.353Z,56.32
2018-09-05T10:43:36.453Z,56.26
2018-09-05T10:46:06.988Z,56.00
2018-09-05T10:48:36.925Z,56.18
2018-09-05T10:51:06.186Z,55.82
2018-09-05T10:53:35.749Z,55.82
2018-09-05T10:56:06.986Z,55.34
2018-09-05T10:58:36.321Z,55.50
2018-09-05T11:01:05.976Z,55.69
2018-09-05T11:03:47.610Z,55.67
2018-09-05T11:06:16.986Z,55.50
2018-09-05T11:08:46.731Z,55.38
2018-09-05T11:11:15.939Z,55.20
2018-09-05T11:13:47.518Z,54.80
2018-09-05T11:16:16.781Z,54.84
2018-09-05T11:18:47.316Z,54.63
2018-09-05T11:21:16.581Z,54.63
2018-09-05T11:23:46.053Z,54.58
2018-09-05T11:26:15.828Z,54.22
2018-09-05T11:28:45.047Z,54.15
2018-09-05T11:31:14.078Z,54.00
2018-09-05T11:33:43.437Z,53.92
2018-09-05T11:36:12.572Z,53.72
2018-09-05T11:38:41.939Z,53.15
2018-09-05T11:41:14.341Z,52.89
2018-09-05T11:43:43.953Z,52.63
2018-09-05T11:46:15.806Z,52.42
2018-09-05T11:48:44.884Z,52.37
2018-09-05T11:51:13.974Z,52.51
2018-09-05T11:53:43.069Z,51.92
2018-09-05T11:56:12.218Z,51.89
2018-09-05T11:58:41.271Z,51.25
2018-09-05T12:01:11.259Z,51.33
2018-09-05T12:03:40.502Z,51.03
2018-09-05T12:06:09.681Z,51.36
2018-09-05T12:08:38.845Z,50.67
2018-09-05T12:11:09.006Z,50.53
2018-09-05T12:13:38.032Z,50.08
2018-09-05T12:16:08.071Z,50.12
2018-09-05T12:18:37.275Z,50.17
2018-09-05T12:21:06.973Z,49.91
2018-09-05T12:23:36.960Z,49.85
2018-09-05T12:26:06.934Z,50.14
2018-09-05T12:28:36.157Z,49.96
2018-09-05T12:31:05.977Z,50.11
2018-09-05T12:33:35.557Z,50.12
2018-09-05T12:36:07.354Z,49.81
2018-09-05T12:38:37.552Z,49.29
2018-09-05T12:41:08.508Z,49.26
2018-09-05T12:43:37.793Z,49.27
2018-09-05T12:46:06.837Z,49.13
2018-09-05T12:48:35.947Z,48.79
2018-09-05T12:51:05.143Z,48.66
2018-09-05T12:53:34.406Z,47.34
2018-09-05T12:56:03.579Z,46.49
2018-09-05T12:58:32.957Z,46.04
2018-09-05T13:01:02.204Z,46.61
2018-09-05T13:03:35.935Z,46.55
2018-09-05T13:06:06.099Z,47.37
2018-09-05T13:08:47.043Z,47.84
2018-09-05T13:11:24.134Z,48.38
2018-09-05T13:13:53.392Z,48.64
2018-09-05T13:16:22.413Z,48.78
2018-09-05T13:18:51.448Z,49.26
2018-09-05T13:24:01.736Z,49.42
2018-09-05T13:26:30.823Z,49.57
2018-09-05T13:29:00.060Z,49.71
2018-09-05T13:31:29.132Z,49.82
2018-09-05T13:33:58.233Z,50.04
2018-09-05T13:36:28.029Z,50.30
2018-09-05T13:38:57.991Z,50.11
2018-09-05T13:41:27.992Z,50.31
2018-09-05T13:43:58.933Z,50.62
2018-09-05T13:46:28.967Z,50.56
2018-09-05T13:48:58.180Z,50.15
2018-09-05T13:51:27.269Z,50.62
2018-09-05T13:53:56.368Z,50.44
2018-09-05T13:56:25.839Z,50.07
2018-09-05T13:58:55.143Z,50.50
2018-09-05T14:01:24.500Z,49.65
2018-09-05T14:03:54.531Z,50.35
2018-09-05T14:06:23.780Z,50.29
2018-09-05T14:08:52.959Z,50.62
2018-09-05T14:11:22.078Z,50.27
2018-09-05T14:13:58.103Z,50.69
2018-09-05T14:16:27.440Z,50.66
2018-09-05T14:18:56.622Z,50.42
2018-09-05T14:21:26.078Z,50.71
2018-09-05T14:23:55.380Z,50.71
2018-09-05T14:26:24.544Z,50.84
2018-09-05T14:28:54.641Z,50.59
2018-09-05T14:31:25.386Z,50.35
2018-09-05T14:33:54.832Z,50.30
2018-09-05T14:36:24.763Z,50.55
2018-09-05T14:38:53.868Z,50.27
2018-09-05T14:41:23.156Z,50.41
2018-09-05T14:43:52.999Z,50.29
2018-09-05T14:46:22.130Z,50.41
2018-09-05T14:48:51.205Z,50.41
2018-09-05T14:51:22.000Z,50.36
2018-09-05T14:53:56.394Z,50.17
2018-09-05T14:56:25.509Z,50.46
2018-09-05T14:58:54.607Z,50.58
2018-09-05T15:01:23.681Z,50.60
2018-09-05T15:03:53.028Z,50.69
2018-09-05T15:06:30.992Z,51.12
2018-09-05T15:08:59.983Z,51.27
2018-09-05T15:11:29.120Z,51.04
2018-09-05T15:13:58.385Z,51.10
2018-09-05T15:16:27.612Z,51.03
2018-09-05T15:18:56.647Z,50.62
2018-09-05T15:21:25.653Z,50.68
2018-09-05T15:23:54.690Z,50.71
2018-09-05T15:26:23.809Z,50.61
2018-09-05T15:28:53.052Z,50.45
2018-09-05T15:31:22.558Z,50.51
2018-09-05T15:33:51.848Z,50.34
2018-09-05T15:36:21.975Z,50.47
2018-09-05T15:38:51.073Z,50.46
2018-09-05T15:41:21.313Z,50.27
2018-09-05T15:43:51.445Z,50.51
2018-09-05T15:46:21.086Z,50.76
2018-09-05T15:48:52.312Z,50.37
2018-09-05T15:51:23.505Z,50.71
2018-09-05T15:53:53.715Z,50.44
2018-09-05T15:56:22.954Z,50.43
2018-09-05T15:58:52.228Z,50.25
2018-09-05T16:01:23.882Z,50.19
2018-09-05T16:04:00.843Z,50.10
2018-09-05T16:06:30.950Z,50.57
2018-09-05T16:09:17.916Z,50.10
2018-09-05T16:11:48.151Z,50.04
2018-09-05T16:14:17.411Z,50.27
2018-09-05T16:16:54.025Z,50.51
2018-09-05T16:19:23.442Z,50.56
2018-09-05T16:24:25.719Z,50.73
2018-09-05T16:26:55.094Z,50.73
2018-09-05T16:29:26.307Z,50.64
2018-09-05T16:31:55.448Z,50.65
2018-09-05T16:34:24.591Z,50.61
2018-09-05T16:36:53.584Z,50.70
2018-09-05T16:39:22.713Z,50.76
2018-09-05T16:41:51.901Z,50.95
2018-09-05T16:44:20.966Z,51.07
2018-09-05T16:46:50.408Z,51.17
2018-09-05T16:49:20.603Z,51.12
2018-09-05T16:51:49.721Z,51.25
2018-09-05T16:54:18.888Z,51.37
2018-09-05T16:56:47.959Z,51.36
2018-09-05T16:59:17.077Z,51.14
2018-09-05T17:01:46.201Z,51.39
2018-09-05T17:04:15.295Z,51.55
2018-09-05T17:06:44.356Z,51.71
2018-09-05T17:09:13.945Z,51.97
2018-09-05T17:11:43.187Z,51.97
2018-09-05T17:14:13.219Z,51.96
2018-09-05T17:16:42.482Z,51.96
2018-09-05T17:19:11.550Z,52.11
2018-09-05T17:21:40.611Z,52.21
2018-09-05T17:24:09.753Z,52.07
2018-09-05T17:26:38.956Z,52.22
2018-09-05T17:29:08.626Z,52.29
2018-09-05T17:31:38.040Z,52.45
2018-09-05T17:34:07.282Z,52.47
2018-09-05T17:36:36.580Z,52.69
2018-09-05T17:39:08.394Z,52.53
2018-09-05T17:41:37.488Z,52.73
2018-09-05T17:44:06.535Z,52.66
2018-09-05T17:46:35.666Z,52.71
2018-09-05T17:49:04.918Z,52.92
2018-09-05T17:51:35.017Z,52.80
2018-09-05T17:54:04.502Z,52.90
2018-09-05T17:56:33.621Z,52.87
2018-09-05T17:59:02.726Z,52.95
2018-09-05T18:01:32.806Z,53.03
2018-09-05T18:04:01.853Z,53.04
2018-09-05T18:06:30.855Z,53.28
2018-09-05T18:08:59.884Z,53.41
2018-09-05T18:11:28.955Z,53.58
2018-09-05T18:13:58.055Z,53.62
2018-09-05T18:16:27.057Z,53.80
2018-09-05T18:18:56.253Z,53.99
2018-09-05T18:21:25.534Z,53.98
2018-09-05T18:23:54.682Z,54.28
2018-09-05T18:26:24.255Z,54.39
2018-09-05T18:28:53.384Z,54.47
2018-09-05T18:31:22.410Z,54.58
2018-09-05T18:33:51.737Z,54.56
2018-09-05T18:36:20.720Z,54.69
2018-09-05T18:38:49.871Z,54.85
2018-09-05T18:41:19.068Z,54.89
2018-09-05T18:43:48.722Z,54.87
2018-09-05T18:46:18.061Z,55.08
2018-09-05T18:48:47.107Z,55.11
2018-09-05T18:51:17.693Z,55.28
2018-09-05T18:53:46.892Z,55.50
2018-09-05T18:56:15.932Z,55.71
2018-09-05T18:58:45.318Z,55.75
2018-09-05T19:01:14.380Z,55.82
2018-09-05T19:03:43.425Z,55.89
2018-09-05T19:06:12.573Z,56.14
2018-09-05T19:08:41.859Z,56.42
2018-09-05T19:11:11.851Z,56.54
2018-09-05T19:13:41.202Z,57.01
2018-09-05T19:16:10.241Z,57.20
2018-09-05T19:18:40.649Z,57.53
2018-09-05T19:21:09.827Z,57.90
2018-09-05T19:23:40.459Z,57.85
2018-09-05T19:26:10.533Z,57.90
2018-09-05T19:28:39.719Z,57.92
2018-09-05T19:31:08.910Z,57.90
2018-09-05T19:33:38.956Z,57.91
2018-09-05T19:36:08.081Z,57.95
2018-09-05T19:38:37.145Z,57.93
2018-09-05T19:41:06.276Z,57.82
2018-09-05T19:43:35.339Z,57.87
2018-09-05T19:46:05.078Z,57.77
2018-09-05T19:48:34.580Z,58.11
2018-09-05T19:51:03.693Z,58.30
2018-09-05T19:53:32.772Z,58.47
2018-09-05T19:56:01.817Z,58.72
2018-09-05T19:58:30.876Z,59.13
2018-09-05T20:00:59.877Z,59.31
2018-09-05T20:03:28.951Z,59.53
2018-09-05T20:05:58.169Z,59.79
2018-09-05T20:08:27.316Z,59.79
2018-09-05T20:11:07.692Z,60.05
2018-09-05T20:13:36.850Z,60.18
2018-09-05T20:16:06.015Z,60.35
2018-09-05T20:18:35.040Z,60.32
2018-09-05T20:21:04.285Z,60.42
2018-09-05T20:23:33.467Z,60.43
2018-09-05T20:26:02.451Z,60.49
2018-09-05T20:28:31.462Z,60.76
2018-09-05T20:31:00.657Z,61.04
2018-09-05T20:33:29.663Z,61.23
2018-09-05T20:35:58.751Z,61.32
2018-09-05T20:38:28.746Z,61.50
2018-09-05T20:40:58.278Z,61.18
2018-09-05T20:43:27.377Z,61.38
2018-09-05T20:45:56.588Z,61.52
2018-09-05T20:48:25.819Z,61.56
2018-09-05T20:50:54.905Z,61.40
2018-09-05T20:53:24.038Z,61.37
2018-09-05T20:55:53.218Z,61.31
2018-09-05T20:58:22.409Z,61.36
2018-09-05T21:00:51.742Z,61.32
2018-09-05T21:03:23.398Z,61.47
2018-09-05T21:05:52.476Z,61.52
2018-09-05T21:08:21.606Z,61.56
2018-09-05T21:10:50.712Z,61.59
2018-09-05T21:13:20.719Z,61.75
2018-09-05T21:15:49.780Z,62.01
2018-09-05T21:18:19.055Z,61.91
2018-09-05T21:20:48.424Z,62.05
2018-09-05T21:23:17.602Z,62.19
2018-09-05T21:25:47.694Z,62.65
2018-09-05T21:28:16.744Z,62.97
2018-09-05T21:30:45.782Z,63.07
2018-09-05T21:33:14.902Z,63.28
2018-09-05T21:35:43.946Z,63.43
2018-09-05T21:38:13.951Z,63.17
2018-09-05T21:40:43.186Z,63.17
2018-09-05T21:43:12.313Z,62.91
2018-09-05T21:45:41.427Z,62.95
2018-09-05T21:48:10.664Z,62.95
2018-09-05T21:50:40.976Z,62.94
2018-09-05T21:53:10.041Z,62.78
2018-09-05T21:55:39.169Z,62.95
2018-09-05T21:58:08.209Z,63.02
2018-09-05T22:00:37.483Z,63.05
2018-09-05T22:03:06.769Z,63.28
2018-09-05T22:05:35.928Z,63.39
2018-09-05T22:08:09.422Z,63.39
2018-09-05T22:10:38.600Z,62.95
2018-09-05T22:13:07.705Z,63.40
2018-09-05T22:15:42.106Z,63.38
2018-09-05T22:18:11.103Z,63.35
2018-09-05T22:20:54.719Z,63.33
2018-09-05T22:23:23.808Z,63.27
2018-09-05T22:26:06.773Z,63.41
2018-09-05T22:28:50.783Z,63.36
2018-09-05T22:31:19.991Z,63.12
2018-09-05T22:34:03.573Z,63.33
2018-09-05T22:36:46.895Z,63.16
2018-09-05T22:39:28.663Z,62.95
2018-09-05T22:41:57.793Z,63.16
2018-09-05T22:44:45.075Z,63.29
2018-09-05T22:47:33.966Z,63.18
2018-09-05T22:50:28.634Z,63.50
2018-09-05T22:53:22.236Z,63.63
2018-09-05T23:00:20.644Z,63.56
2018-09-05T23:04:09.670Z,63.08
2018-09-05T23:07:19.985Z,63.02
2018-09-05T23:09:59.711Z,63.11
2018-09-05T23:12:46.657Z,63.01
2018-09-05T23:16:28.286Z,62.96
2018-09-05T23:21:17.056Z,63.06
2018-09-05T23:23:59.871Z,62.88
2018-09-05T23:26:29.175Z,63.06
2018-09-05T23:28:58.327Z,63.77
2018-09-05T23:31:27.566Z,63.92
2018-09-05T23:33:56.748Z,64.53
2018-09-05T23:36:26.200Z,64.40
2018-09-05T23:38:55.311Z,65.02
2018-09-05T23:41:24.388Z,64.86
2018-09-05T23:43:53.495Z,65.16
2018-09-05T23:46:22.556Z,65.62
2018-09-05T23:48:51.685Z,65.35
2018-09-05T23:51:20.749Z,65.99
2018-09-05T23:53:49.754Z,65.72
2018-09-05T23:56:18.921Z,65.24
2018-09-05T23:58:48.038Z,65.14
